createdAt,value
2019-05-02T00:01:26.474Z,50.33
2019-05-02T00:03:52.922Z,49.97
2019-05-02T00:06:19.735Z,50.20
2019-05-02T00:08:46.221Z,51.57
2019-05-02T00:11:12.585Z,51.30
2019-05-02T00:13:38.727Z,47.60
2019-05-02T00:16:09.126Z,53.67
2019-05-02T00:18:37.322Z,49.90
2019-05-02T00:21:03.153Z,48.53
2019-05-02T00:23:29.562Z,49.93
2019-05-02T00:25:55.828Z,58.87
2019-05-02T00:28:22.260Z,55.67
2019-05-02T00:30:48.620Z,56.10
2019-05-02T00:33:14.774Z,59.57
2019-05-02T00:35:45.903Z,61.17
2019-05-02T00:38:09.331Z,61.47
2019-05-02T00:40:35.659Z,60.33
2019-05-02T00:43:01.805Z,59.10
2019-05-02T00:45:27.966Z,64.10
2019-05-02T00:48:12.790Z,61.03
2019-05-02T00:50:40.733Z,65.40
2019-05-02T00:53:12.132Z,61.10
2019-05-02T00:55:36.174Z,60.23
2019-05-02T00:58:02.816Z,60.27
2019-05-02T01:00:30.886Z,57.20
2019-05-02T01:02:58.930Z,59.93
2019-05-02T01:05:25.094Z,58.17
2019-05-02T01:07:51.240Z,60.57
2019-05-02T01:10:21.338Z,60.33
2019-05-02T01:12:46.250Z,59.30
2019-05-02T01:15:13.071Z,55.13
2019-05-02T01:17:39.495Z,63.37
2019-05-02T01:20:06.243Z,58.70
2019-05-02T01:22:32.402Z,61.70
2019-05-02T01:24:58.558Z,59.43
2019-05-02T01:27:43.557Z,53.87
2019-05-02T01:30:28.475Z,56.67
2019-05-02T01:33:06.582Z,61.13
2019-05-02T01:35:47.688Z,59.30
2019-05-02T01:38:19.819Z,58.07
2019-05-02T01:40:53.001Z,60.33
2019-05-02T01:43:23.983Z,59.80
2019-05-02T01:45:50.480Z,57.07
2019-05-02T01:48:16.889Z,61.40
2019-05-02T01:50:43.031Z,60.90
2019-05-02T01:53:09.187Z,59.13
2019-05-02T01:55:35.417Z,61.77
2019-05-02T01:58:01.591Z,61.87
2019-05-02T02:00:27.738Z,64.97
2019-05-02T02:02:53.899Z,63.73
2019-05-02T02:05:20.187Z,63.60
2019-05-02T02:07:50.776Z,64.53
2019-05-02T02:10:19.511Z,68.30
2019-05-02T02:12:56.494Z,67.53
2019-05-02T02:15:11.976Z,69.47
2019-05-02T02:17:38.135Z,68.80
2019-05-02T02:20:09.800Z,72.17
2019-05-02T02:22:54.005Z,71.27
2019-05-02T02:25:32.203Z,67.67
2019-05-02T02:27:59.589Z,66.93
2019-05-02T02:30:26.624Z,68.13
2019-05-02T02:32:53.100Z,66.80
2019-05-02T02:35:19.737Z,63.90
2019-05-02T02:37:53.061Z,67.33
2019-05-02T02:40:14.884Z,67.53
2019-05-02T02:42:41.244Z,64.07
2019-05-02T02:45:20.459Z,65.03
2019-05-02T02:47:53.069Z,70.07
2019-05-02T02:50:15.045Z,67.57
2019-05-02T02:52:44.772Z,68.70
2019-05-02T02:55:10.467Z,69.93
2019-05-02T02:57:36.638Z,67.87
2019-05-02T03:00:10.594Z,66.03
2019-05-02T03:02:34.058Z,68.10
2019-05-02T03:05:00.623Z,61.47
2019-05-02T03:07:28.849Z,63.57
2019-05-02T03:09:59.651Z,60.67
2019-05-02T03:12:26.038Z,60.83
2019-05-02T03:14:54.107Z,57.07
2019-05-02T03:17:25.769Z,58.23
2019-05-02T03:19:48.592Z,59.07
2019-05-02T03:22:14.736Z,55.03
2019-05-02T03:24:43.877Z,58.90
2019-05-02T03:27:09.217Z,62.33
2019-05-02T03:29:41.135Z,60.30
2019-05-02T03:32:14.494Z,57.40
2019-05-02T03:34:47.284Z,60.27
2019-05-02T03:37:03.127Z,58.43
2019-05-02T03:39:28.968Z,56.27
2019-05-02T03:42:02.965Z,58.03
2019-05-02T03:44:26.215Z,55.97
2019-05-02T03:46:54.344Z,61.40
2019-05-02T03:49:20.243Z,57.57
2019-05-02T03:51:46.388Z,56.13
2019-05-02T03:54:12.564Z,53.57
2019-05-02T03:56:44.472Z,61.37
2019-05-02T03:59:07.140Z,55.67
2019-05-02T04:01:34.596Z,57.67
2019-05-02T04:04:01.746Z,51.70
2019-05-02T04:06:28.396Z,55.00
2019-05-02T04:09:00.383Z,56.40
2019-05-02T04:11:24.007Z,52.77
2019-05-02T04:13:51.248Z,52.73
2019-05-02T04:16:17.816Z,54.60
2019-05-02T04:18:54.600Z,54.43
2019-05-02T04:21:12.935Z,58.53
2019-05-02T04:23:39.287Z,57.43
2019-05-02T04:26:06.707Z,51.47
2019-05-02T04:28:33.700Z,56.17
2019-05-02T04:31:00.051Z,58.20
2019-05-02T04:33:29.180Z,55.30
2019-05-02T04:35:54.279Z,58.23
2019-05-02T04:38:30.996Z,59.10
2019-05-02T04:40:49.601Z,53.30
2019-05-02T04:43:18.356Z,56.60
2019-05-02T04:45:55.313Z,56.60
2019-05-02T04:48:12.090Z,56.97
2019-05-02T04:50:38.284Z,55.47
2019-05-02T04:53:04.527Z,54.97
2019-05-02T04:55:33.402Z,54.87
2019-05-02T04:58:01.663Z,52.23
2019-05-02T05:00:28.629Z,54.80
2019-05-02T05:02:57.889Z,57.10
2019-05-02T05:05:25.835Z,53.47
2019-05-02T05:07:51.532Z,54.67
2019-05-02T05:10:18.562Z,51.67
2019-05-02T05:12:45.233Z,55.17
2019-05-02T05:15:15.269Z,56.20
2019-05-02T05:17:39.742Z,50.60
2019-05-02T05:20:13.668Z,54.37
2019-05-02T05:22:36.477Z,54.47
2019-05-02T05:25:16.789Z,53.77
2019-05-02T05:27:40.488Z,54.67
2019-05-02T05:30:14.584Z,52.97
2019-05-02T05:32:35.163Z,55.47
2019-05-02T05:35:03.527Z,55.10
2019-05-02T05:37:30.896Z,54.27
2019-05-02T05:39:58.039Z,57.17
2019-05-02T05:42:30.205Z,54.37
2019-05-02T05:44:52.379Z,52.63
2019-05-02T05:47:21.329Z,57.40
2019-05-02T05:49:47.747Z,57.13
2019-05-02T05:52:14.053Z,56.93
2019-05-02T05:54:42.032Z,52.33
2019-05-02T05:57:12.230Z,52.80
2019-05-02T05:59:38.204Z,54.53
2019-05-02T06:02:05.416Z,47.87
2019-05-02T06:04:33.445Z,55.50
2019-05-02T06:07:03.184Z,50.90
2019-05-02T06:09:31.191Z,50.93
2019-05-02T06:11:56.671Z,50.63
2019-05-02T06:14:24.952Z,53.93
2019-05-02T06:16:51.662Z,53.83
2019-05-02T06:19:19.240Z,50.33
2019-05-02T06:21:46.721Z,51.27
2019-05-02T06:24:15.770Z,51.00
2019-05-02T06:26:44.645Z,49.97
2019-05-02T06:29:13.067Z,48.93
2019-05-02T06:31:42.595Z,47.73
2019-05-02T06:34:07.024Z,47.73
2019-05-02T06:36:36.884Z,45.73
2019-05-02T06:39:01.520Z,44.63
2019-05-02T06:41:29.581Z,46.17
2019-05-02T06:43:55.751Z,44.33
2019-05-02T06:46:27.835Z,40.73
2019-05-02T06:48:52.231Z,40.90
2019-05-02T06:51:20.868Z,42.63
2019-05-02T06:53:46.959Z,43.80
2019-05-02T06:56:14.151Z,41.73
2019-05-02T06:58:42.010Z,39.50
2019-05-02T07:01:08.411Z,37.53
2019-05-02T07:03:34.908Z,32.17
2019-05-02T07:06:02.812Z,32.43
2019-05-02T07:08:29.446Z,32.17
2019-05-02T07:11:00.654Z,34.30
2019-05-02T07:13:23.775Z,36.30
2019-05-02T07:15:51.907Z,36.07
2019-05-02T07:18:20.226Z,37.87
2019-05-02T07:20:46.384Z,36.77
2019-05-02T07:23:16.053Z,31.53
2019-05-02T07:25:44.046Z,28.73
2019-05-02T07:28:09.507Z,34.03
2019-05-02T07:30:37.576Z,31.93
2019-05-02T07:33:03.976Z,33.00
2019-05-02T07:35:30.387Z,34.70
2019-05-02T07:37:56.551Z,39.92
2019-05-02T07:40:22.935Z,41.73
2019-05-02T07:42:49.200Z,44.83
2019-05-02T07:45:15.669Z,43.87
2019-05-02T07:47:42.473Z,47.53
2019-05-02T07:50:11.814Z,47.87
2019-05-02T07:52:40.894Z,46.57
2019-05-02T07:55:09.826Z,47.07
2019-05-02T07:57:34.448Z,46.30
2019-05-02T08:00:05.012Z,45.83
2019-05-02T08:02:31.797Z,48.97
2019-05-02T08:04:57.947Z,49.10
2019-05-02T08:07:27.146Z,48.20
2019-05-02T08:09:52.160Z,50.40
2019-05-02T08:12:18.534Z,56.63
2019-05-02T08:14:44.691Z,55.93
2019-05-02T08:17:16.887Z,55.90
2019-05-02T08:19:41.691Z,55.50
2019-05-02T08:22:13.316Z,52.30
2019-05-02T08:24:37.985Z,53.07
2019-05-02T08:27:05.079Z,51.90
2019-05-02T08:29:31.239Z,52.40
2019-05-02T08:31:57.681Z,49.03
2019-05-02T08:34:32.713Z,51.57
2019-05-02T08:37:03.087Z,54.10
2019-05-02T08:39:33.075Z,51.57
2019-05-02T08:41:57.899Z,52.70
2019-05-02T08:44:24.366Z,51.00
2019-05-02T08:46:51.531Z,54.07
2019-05-02T08:49:19.983Z,53.77
2019-05-02T08:51:46.408Z,49.70
2019-05-02T08:54:12.636Z,51.30
2019-05-02T08:56:38.888Z,52.67
2019-05-02T08:59:05.283Z,52.97
2019-05-02T09:01:35.239Z,51.60
2019-05-02T09:04:00.359Z,50.87
2019-05-02T09:06:26.775Z,49.93
2019-05-02T09:08:53.003Z,50.93
2019-05-02T09:11:19.215Z,46.97
2019-05-02T09:13:46.063Z,52.67
2019-05-02T09:16:12.727Z,55.47
2019-05-02T09:18:46.567Z,48.83
2019-05-02T09:21:07.367Z,49.77
2019-05-02T09:23:37.070Z,49.40
2019-05-02T09:26:02.583Z,52.73
2019-05-02T09:28:29.188Z,55.43
2019-05-02T09:30:57.504Z,49.97
2019-05-02T09:33:23.467Z,49.90
2019-05-02T09:35:51.601Z,45.43
2019-05-02T09:38:18.031Z,44.70
2019-05-02T09:40:47.128Z,46.50
2019-05-02T09:43:12.381Z,50.37
2019-05-02T09:45:41.098Z,47.07
2019-05-02T09:48:08.085Z,47.33
2019-05-02T09:50:36.614Z,47.47
2019-05-02T09:53:02.933Z,48.33
2019-05-02T09:55:29.100Z,51.13
2019-05-02T09:57:55.257Z,46.60
2019-05-02T10:00:36.300Z,47.93
2019-05-02T10:03:02.747Z,49.10
2019-05-02T10:05:29.160Z,53.33
2019-05-02T10:07:57.375Z,50.13
2019-05-02T10:10:24.171Z,48.17
2019-05-02T10:12:52.113Z,48.80
2019-05-02T10:15:18.385Z,46.83
2019-05-02T10:17:46.767Z,49.37
2019-05-02T10:20:13.215Z,46.60
2019-05-02T10:22:41.403Z,44.43
2019-05-02T10:25:08.829Z,48.73
2019-05-02T10:27:38.468Z,45.40
2019-05-02T10:30:11.837Z,43.57
2019-05-02T10:32:35.774Z,45.17
2019-05-02T10:35:06.976Z,44.47
2019-05-02T10:37:38.305Z,41.07
2019-05-02T10:40:03.075Z,44.67
2019-05-02T10:42:29.545Z,45.67
2019-05-02T10:44:55.718Z,44.90
2019-05-02T10:47:22.223Z,44.27
2019-05-02T10:49:53.406Z,45.60
2019-05-02T10:52:21.613Z,44.93
2019-05-02T10:54:49.360Z,44.17
2019-05-02T10:57:15.537Z,46.47
2019-05-02T10:59:42.152Z,46.17
2019-05-02T11:02:25.029Z,45.50
2019-05-02T11:04:53.196Z,42.03
2019-05-02T11:07:22.685Z,45.67
2019-05-02T11:09:47.447Z,43.60
2019-05-02T11:12:16.444Z,45.47
2019-05-02T11:14:46.020Z,43.17
2019-05-02T11:17:17.681Z,40.73
2019-05-02T11:19:47.994Z,41.70
2019-05-02T11:22:14.188Z,40.27
2019-05-02T11:24:41.819Z,44.70
2019-05-02T11:27:08.317Z,43.27
2019-05-02T11:29:34.670Z,44.13
2019-05-02T11:32:02.632Z,40.87
2019-05-02T11:34:29.147Z,40.23
2019-05-02T11:36:55.299Z,45.30
2019-05-02T11:39:31.549Z,38.30
2019-05-02T11:41:49.807Z,37.40
2019-05-02T11:44:15.964Z,38.87
2019-05-02T11:46:46.782Z,38.53
2019-05-02T11:49:12.086Z,38.00
2019-05-02T11:51:38.248Z,39.50
2019-05-02T11:54:09.191Z,41.53
2019-05-02T11:56:33.088Z,37.70
2019-05-02T11:58:59.363Z,39.33
2019-05-02T12:01:35.570Z,39.23
2019-05-02T12:03:54.321Z,37.77
2019-05-02T12:06:22.326Z,37.30
2019-05-02T12:08:49.434Z,39.07
2019-05-02T12:11:17.697Z,37.80
2019-05-02T12:13:47.347Z,38.60
2019-05-02T12:16:13.483Z,38.97
2019-05-02T12:18:41.807Z,35.67
2019-05-02T12:21:07.938Z,34.43
2019-05-02T12:23:36.162Z,35.27
2019-05-02T12:26:02.976Z,39.00
2019-05-02T12:28:29.418Z,38.43
2019-05-02T12:30:55.563Z,34.10
2019-05-02T12:33:23.932Z,36.60
2019-05-02T12:35:52.402Z,35.90
2019-05-02T12:38:18.611Z,36.00
2019-05-02T12:40:45.061Z,34.10
2019-05-02T12:43:11.988Z,33.57
2019-05-02T12:45:38.491Z,32.83
2019-05-02T12:48:04.647Z,31.70
2019-05-02T12:50:32.197Z,35.43
2019-05-02T12:52:58.570Z,34.60
2019-05-02T12:55:24.995Z,36.70
2019-05-02T12:57:52.324Z,34.43
2019-05-02T13:00:19.235Z,36.07
2019-05-02T13:02:50.164Z,35.13
2019-05-02T13:05:18.572Z,34.17
2019-05-02T13:07:50.498Z,37.10
2019-05-02T13:10:15.343Z,34.67
2019-05-02T13:12:43.423Z,34.87
2019-05-02T13:15:10.076Z,34.23
2019-05-02T13:17:47.163Z,34.47
2019-05-02T13:20:07.809Z,36.23
2019-05-02T13:22:36.038Z,36.80
2019-05-02T13:25:06.038Z,38.07
2019-05-02T13:27:43.341Z,39.50
2019-05-02T13:30:03.196Z,42.33
2019-05-02T13:32:37.515Z,46.50
2019-05-02T13:35:08.921Z,56.27
2019-05-02T13:37:35.591Z,58.10
2019-05-02T13:40:11.961Z,63.17
2019-05-02T13:42:38.695Z,58.57
2019-05-02T13:45:16.607Z,60.33
2019-05-02T13:47:42.862Z,62.93
2019-05-02T13:50:09.629Z,68.03
2019-05-02T13:52:35.779Z,68.63
2019-05-02T13:55:05.756Z,65.60
2019-05-02T13:57:35.034Z,71.87
2019-05-02T14:00:02.140Z,65.37
2019-05-02T14:02:36.362Z,65.60
2019-05-02T14:05:08.863Z,67.17
2019-05-02T14:07:35.327Z,73.33
2019-05-02T14:10:05.989Z,68.50
2019-05-02T14:12:43.639Z,70.80
2019-05-02T14:15:11.710Z,69.73
2019-05-02T14:17:38.171Z,74.43
2019-05-02T14:20:10.408Z,72.10
2019-05-02T14:22:33.019Z,75.00
2019-05-02T14:24:59.275Z,69.20
2019-05-02T14:27:25.434Z,61.43
2019-05-02T14:29:52.518Z,67.77
2019-05-02T14:32:23.728Z,68.13
2019-05-02T14:34:50.012Z,68.90
2019-05-02T14:37:16.155Z,65.13
2019-05-02T14:39:43.625Z,59.40
2019-05-02T14:42:21.042Z,64.67
2019-05-02T14:45:04.437Z,62.33
2019-05-02T14:47:10.023Z,64.10
2019-05-02T14:49:37.987Z,57.80
2019-05-02T14:52:06.965Z,60.43
2019-05-02T14:54:32.683Z,56.97
2019-05-02T14:57:17.210Z,52.20
2019-05-02T14:59:42.729Z,50.30
2019-05-02T15:02:13.070Z,52.17
2019-05-02T15:04:44.687Z,51.13
2019-05-02T15:07:08.526Z,50.27
2019-05-02T15:09:36.359Z,51.87
2019-05-02T15:12:08.256Z,51.73
2019-05-02T15:14:33.111Z,50.03
2019-05-02T15:16:59.673Z,50.83
2019-05-02T15:19:25.835Z,51.83
2019-05-02T15:21:55.984Z,50.87
2019-05-02T15:24:22.957Z,51.37
2019-05-02T15:26:49.684Z,51.13
2019-05-02T15:29:19.708Z,43.90
2019-05-02T15:31:48.587Z,39.07
2019-05-02T15:34:19.168Z,48.43
2019-05-02T15:36:45.949Z,52.27
2019-05-02T15:41:44.705Z,66.87
2019-05-02T15:44:09.584Z,65.43
2019-05-02T15:46:35.723Z,66.00
2019-05-02T15:49:05.718Z,64.90
2019-05-02T15:51:30.591Z,64.67
2019-05-02T15:54:06.119Z,58.20
2019-05-02T15:56:26.728Z,53.60
2019-05-02T15:58:52.898Z,51.80
2019-05-02T16:01:24.039Z,55.63
2019-05-02T16:04:01.706Z,49.37
2019-05-02T16:06:31.704Z,55.57
2019-05-02T16:08:56.223Z,57.60
2019-05-02T16:11:22.988Z,61.50
2019-05-02T16:13:52.375Z,58.90
2019-05-02T16:16:21.935Z,58.40
2019-05-02T16:18:48.319Z,58.37
2019-05-02T16:21:30.078Z,60.27
2019-05-02T16:24:14.954Z,61.90
2019-05-02T16:26:42.745Z,52.83
2019-05-02T16:29:11.062Z,53.67
2019-05-02T16:31:39.724Z,57.90
2019-05-02T16:34:05.895Z,52.83
2019-05-02T16:36:37.298Z,52.90
2019-05-02T16:39:00.207Z,51.27
2019-05-02T16:41:26.464Z,51.87
2019-05-02T16:43:54.292Z,49.53
2019-05-02T16:46:21.665Z,52.00
2019-05-02T16:48:48.023Z,57.20
2019-05-02T16:51:30.296Z,46.93
2019-05-02T16:53:43.227Z,43.60
2019-05-02T16:56:11.467Z,42.97
2019-05-02T16:58:38.010Z,43.50
2019-05-02T17:01:05.830Z,46.00
2019-05-02T17:03:31.976Z,43.53
2019-05-02T17:05:58.723Z,42.67
2019-05-02T17:08:41.886Z,42.60
2019-05-02T17:11:20.653Z,41.13
2019-05-02T17:13:46.829Z,42.63
2019-05-02T17:16:16.996Z,41.27
2019-05-02T17:18:43.135Z,39.73
2019-05-02T17:21:09.096Z,46.00
2019-05-02T17:23:37.362Z,43.97
2019-05-02T17:26:04.132Z,43.50
2019-05-02T17:28:31.769Z,40.80
2019-05-02T17:30:58.147Z,42.03
2019-05-02T17:33:24.293Z,42.20
2019-05-02T17:35:52.258Z,43.23
2019-05-02T17:38:23.560Z,43.13
2019-05-02T17:40:47.275Z,40.90
2019-05-02T17:43:13.430Z,41.30
2019-05-02T17:45:40.285Z,43.20
2019-05-02T17:48:08.454Z,38.73
2019-05-02T17:50:49.491Z,43.37
2019-05-02T17:53:13.669Z,40.60
2019-05-02T17:55:40.838Z,43.83
2019-05-02T17:58:12.490Z,43.93
2019-05-02T18:00:37.867Z,40.17
2019-05-02T18:03:04.279Z,43.53
2019-05-02T18:05:32.045Z,42.10
2019-05-02T18:07:58.810Z,45.63
2019-05-02T18:10:25.174Z,41.93
2019-05-02T18:12:56.758Z,39.53
2019-05-02T18:15:20.101Z,41.23
2019-05-02T18:17:46.271Z,40.23
2019-05-02T18:20:12.829Z,45.70
2019-05-02T18:22:39.985Z,49.57
2019-05-02T18:25:07.964Z,46.03
2019-05-02T18:27:34.383Z,38.07
2019-05-02T18:30:02.247Z,43.23
2019-05-02T18:32:30.499Z,38.07
2019-05-02T18:35:01.214Z,42.40
2019-05-02T18:37:24.688Z,45.43
2019-05-02T18:39:55.741Z,36.07
2019-05-02T18:42:22.072Z,34.53
2019-05-02T18:44:48.266Z,35.50
2019-05-02T18:47:20.097Z,41.63
2019-05-02T18:49:43.389Z,37.73
2019-05-02T18:52:11.665Z,37.87
2019-05-02T18:54:38.578Z,39.13
2019-05-02T18:57:05.975Z,40.53
2019-05-02T18:59:32.234Z,40.47
2019-05-02T19:01:59.791Z,47.33
2019-05-02T19:04:34.901Z,39.17
2019-05-02T19:06:54.339Z,38.00
2019-05-02T19:09:24.952Z,39.23
2019-05-02T19:11:48.643Z,37.23
2019-05-02T19:14:16.697Z,36.47
2019-05-02T19:16:42.848Z,37.37
2019-05-02T19:19:09.128Z,36.23
2019-05-02T19:21:39.350Z,37.07
2019-05-02T19:24:04.467Z,39.30
2019-05-02T19:26:32.449Z,36.03
2019-05-02T19:29:14.101Z,36.60
2019-05-02T19:31:44.337Z,39.77
2019-05-02T19:34:07.972Z,34.60
2019-05-02T19:36:34.427Z,32.67
2019-05-02T19:39:07.915Z,30.63
2019-05-02T19:41:32.008Z,27.80
2019-05-02T19:43:58.263Z,20.77
2019-05-02T19:46:31.664Z,18.87
2019-05-02T19:48:52.474Z,15.63
2019-05-02T19:51:20.305Z,17.63
2019-05-02T19:53:53.498Z,16.63
2019-05-02T19:56:15.758Z,14.23
2019-05-02T19:58:46.449Z,15.73
2019-05-02T20:01:10.272Z,17.33
2019-05-02T20:03:36.407Z,13.27
2019-05-02T20:06:06.127Z,16.10
2019-05-02T20:08:32.624Z,17.27
2019-05-02T20:10:59.244Z,15.47
2019-05-02T20:13:28.099Z,15.70
2019-05-02T20:15:57.071Z,16.30
2019-05-02T20:18:23.779Z,15.17
2019-05-02T20:21:12.236Z,13.90
2019-05-02T20:23:36.579Z,15.77
2019-05-02T20:26:03.752Z,11.93
2019-05-02T20:28:31.768Z,12.80
2019-05-02T20:30:58.089Z,12.33
2019-05-02T20:33:24.240Z,12.40
2019-05-02T20:35:50.420Z,10.40
2019-05-02T20:38:16.559Z,13.03
2019-05-02T20:40:42.976Z,10.77
2019-05-02T20:43:09.354Z,11.70
2019-05-02T20:45:35.875Z,13.30
2019-05-02T20:48:02.274Z,12.50
2019-05-02T20:50:31.684Z,10.27
2019-05-02T20:52:57.823Z,10.90
2019-05-02T20:55:24.244Z,13.50
2019-05-02T20:57:52.631Z,10.43
2019-05-02T21:00:29.722Z,11.53
2019-05-02T21:02:55.964Z,10.87
2019-05-02T21:05:27.173Z,16.03
2019-05-02T21:08:12.372Z,13.33
2019-05-02T21:10:43.256Z,13.03
2019-05-02T21:13:09.440Z,12.73
2019-05-02T21:15:35.995Z,12.87
2019-05-02T21:18:02.524Z,13.90
2019-05-02T21:20:28.932Z,12.77
2019-05-02T21:22:55.188Z,13.13
2019-05-02T21:25:23.169Z,13.00
2019-05-02T21:27:49.539Z,14.17
2019-05-02T21:30:24.503Z,16.17
2019-05-02T21:32:52.048Z,13.75
2019-05-02T21:35:18.420Z,13.90
2019-05-02T21:37:44.803Z,13.13
2019-05-02T21:40:11.839Z,14.87
2019-05-02T21:42:38.135Z,14.90
2019-05-02T21:45:04.606Z,13.80
2019-05-02T21:47:31.855Z,12.73
2019-05-02T21:50:03.216Z,13.27
2019-05-02T21:52:37.030Z,12.10
2019-05-02T21:55:10.081Z,13.13
2019-05-02T21:57:36.224Z,10.90
2019-05-02T22:00:07.507Z,13.73
2019-05-02T22:02:35.855Z,16.70
2019-05-02T22:05:04.532Z,12.07
2019-05-02T22:07:32.313Z,12.83
2019-05-02T22:09:58.772Z,12.37
2019-05-02T22:12:25.932Z,10.63
2019-05-02T22:14:52.838Z,14.30
2019-05-02T22:17:19.154Z,12.67
2019-05-02T22:19:45.307Z,11.27
2019-05-02T22:22:13.180Z,13.17
2019-05-02T22:24:39.356Z,14.77
2019-05-02T22:27:05.839Z,10.53
2019-05-02T22:29:32.474Z,14.13
2019-05-02T22:31:58.741Z,14.83
2019-05-02T22:34:24.901Z,11.50
2019-05-02T22:36:53.782Z,11.50
2019-05-02T22:39:32.973Z,13.60
2019-05-02T22:41:59.146Z,12.83
2019-05-02T22:44:25.595Z,16.13
2019-05-02T22:46:52.216Z,12.10
2019-05-02T22:49:18.394Z,13.13
2019-05-02T22:51:44.551Z,13.80
2019-05-02T22:54:24.270Z,16.37
2019-05-02T22:56:40.072Z,12.97
2019-05-02T22:59:06.316Z,13.20
2019-05-02T23:01:32.771Z,12.07
2019-05-02T23:03:59.019Z,14.90
2019-05-02T23:06:25.381Z,11.77
2019-05-02T23:08:52.437Z,12.03
2019-05-02T23:11:18.810Z,13.43
2019-05-02T23:13:44.962Z,12.80
2019-05-02T23:16:11.125Z,12.83
2019-05-02T23:18:37.278Z,14.23
2019-05-02T23:21:03.560Z,11.83
2019-05-02T23:23:29.713Z,11.73
2019-05-02T23:26:00.847Z,14.60
2019-05-02T23:28:31.792Z,12.03
2019-05-02T23:30:58.072Z,13.73
2019-05-02T23:33:26.137Z,11.50
2019-05-02T23:35:52.309Z,11.90
2019-05-02T23:38:18.470Z,13.37
2019-05-02T23:40:44.622Z,17.23
2019-05-02T23:43:12.461Z,12.97
2019-05-02T23:45:38.838Z,11.77
2019-05-02T23:48:05.186Z,12.37
2019-05-02T23:50:31.443Z,12.60
2019-05-02T23:52:57.602Z,14.23
2019-05-02T23:55:23.844Z,11.90
2019-05-02T23:57:50.004Z,10.37
